createdAt,value
2023-05-19T00:00:16.665Z,9.87
2023-05-19T00:02:50.702Z,9.86
2023-05-19T00:05:24.309Z,9.85
2023-05-19T00:07:59.211Z,9.90
2023-05-19T00:10:32.681Z,9.93
2023-05-19T00:13:05.741Z,9.86
2023-05-19T00:15:38.767Z,9.91
2023-05-19T00:18:13.325Z,9.89
2023-05-19T00:20:45.862Z,9.86
2023-05-19T00:23:18.265Z,9.85
2023-05-19T00:25:51.604Z,9.82
2023-05-19T00:28:24.062Z,9.85
2023-05-19T00:30:56.488Z,9.90
2023-05-19T00:33:29.637Z,9.94
2023-05-19T00:36:02.926Z,9.88
2023-05-19T00:38:36.678Z,9.92
2023-05-19T00:41:09.227Z,9.89
2023-05-19T00:43:41.674Z,9.82
2023-05-19T00:46:14.165Z,9.84
2023-05-19T00:48:47.275Z,9.86
2023-05-19T00:51:19.824Z,9.87
2023-05-19T00:53:52.677Z,9.91
2023-05-19T00:56:25.820Z,9.93
2023-05-19T00:58:59.188Z,9.93
2023-05-19T01:01:32.066Z,9.94
2023-05-19T01:04:09.136Z,9.91
2023-05-19T01:06:43.047Z,9.82
2023-05-19T01:09:16.189Z,9.73
2023-05-19T01:11:48.655Z,9.70
2023-05-19T01:14:21.320Z,9.73
2023-05-19T01:17:04.654Z,9.71
2023-05-19T01:19:54.040Z,9.47
2023-05-19T01:22:47.989Z,9.22
2023-05-19T01:25:42.587Z,9.22
2023-05-19T01:28:58.318Z,9.16
2023-05-19T01:31:33.605Z,9.03
2023-05-19T01:34:06.548Z,9.16
2023-05-19T01:36:44.111Z,9.09
2023-05-19T01:39:17.022Z,9.11
2023-05-19T01:41:50.612Z,9.21
2023-05-19T01:44:23.858Z,9.32
2023-05-19T01:46:57.190Z,9.32
2023-05-19T01:49:29.588Z,9.31
2023-05-19T01:52:02.280Z,9.26
2023-05-19T01:54:34.750Z,9.22
2023-05-19T01:57:15.763Z,9.27
2023-05-19T01:59:58.744Z,9.23
2023-05-19T02:02:43.837Z,9.27
2023-05-19T02:05:28.676Z,9.16
2023-05-19T02:08:12.703Z,9.27
2023-05-19T02:10:50.532Z,9.10
2023-05-19T02:13:27.930Z,9.14
2023-05-19T02:16:05.042Z,9.09
2023-05-19T02:18:39.927Z,8.96
2023-05-19T02:21:12.906Z,8.95
2023-05-19T02:23:45.417Z,8.96
2023-05-19T02:26:18.106Z,8.83
2023-05-19T02:28:50.464Z,8.77
2023-05-19T02:31:23.500Z,8.78
2023-05-19T02:33:56.511Z,8.77
2023-05-19T02:36:30.512Z,8.81
2023-05-19T02:39:03.113Z,8.80
2023-05-19T02:41:35.617Z,8.81
2023-05-19T02:44:08.221Z,8.86
2023-05-19T02:46:41.931Z,8.76
2023-05-19T02:49:15.220Z,8.76
2023-05-19T02:51:47.745Z,8.73
2023-05-19T02:54:20.082Z,8.78
2023-05-19T02:56:52.628Z,8.78
2023-05-19T02:59:25.617Z,8.81
2023-05-19T03:02:00.104Z,8.84
2023-05-19T03:04:41.331Z,8.70
2023-05-19T03:07:14.839Z,8.56
2023-05-19T03:09:47.212Z,8.50
2023-05-19T03:12:20.026Z,8.46
2023-05-19T03:14:52.522Z,8.51
2023-05-19T03:17:25.248Z,8.46
2023-05-19T03:19:58.336Z,8.50
2023-05-19T03:22:31.643Z,8.42
2023-05-19T03:25:04.730Z,8.44
2023-05-19T03:27:37.860Z,8.59
2023-05-19T03:30:11.506Z,8.67
2023-05-19T03:32:56.678Z,8.66
2023-05-19T03:35:29.809Z,8.56
2023-05-19T03:38:02.241Z,8.61
2023-05-19T03:40:35.590Z,8.63
2023-05-19T03:43:11.810Z,8.54
2023-05-19T03:45:51.173Z,8.54
2023-05-19T03:48:42.445Z,8.72
2023-05-19T03:51:46.356Z,8.82
2023-05-19T03:54:36.525Z,8.90
2023-05-19T03:57:09.244Z,8.81
2023-05-19T03:59:41.663Z,8.82
2023-05-19T04:02:14.097Z,8.89
2023-05-19T04:04:46.614Z,8.88
2023-05-19T04:07:19.803Z,8.82
2023-05-19T04:09:52.270Z,8.89
2023-05-19T04:12:24.645Z,8.88
2023-05-19T04:14:58.474Z,8.96
2023-05-19T04:17:30.904Z,9.01
2023-05-19T04:20:05.107Z,9.00
2023-05-19T04:22:38.232Z,8.99
2023-05-19T04:25:11.206Z,9.07
2023-05-19T04:27:43.648Z,9.10
2023-05-19T04:30:21.475Z,9.03
2023-05-19T04:32:54.034Z,9.22
2023-05-19T04:35:26.675Z,9.27
2023-05-19T04:38:00.986Z,9.28
2023-05-19T04:40:36.476Z,9.35
2023-05-19T04:43:08.961Z,9.39
2023-05-19T04:45:42.290Z,9.49
2023-05-19T04:48:16.331Z,9.47
2023-05-19T04:50:49.005Z,9.60
2023-05-19T04:53:22.186Z,9.59
2023-05-19T04:55:56.035Z,9.65
2023-05-19T04:58:28.600Z,9.63
2023-05-19T05:01:01.406Z,9.63
2023-05-19T05:03:34.633Z,9.70
2023-05-19T05:06:08.185Z,9.59
2023-05-19T05:08:42.008Z,9.66
2023-05-19T05:11:15.357Z,9.66
2023-05-19T05:13:48.938Z,9.72
2023-05-19T05:16:22.252Z,9.85
2023-05-19T05:18:55.683Z,9.93
2023-05-19T05:21:28.934Z,9.95
2023-05-19T05:24:02.702Z,9.92
2023-05-19T05:26:38.081Z,9.93
2023-05-19T05:29:11.275Z,9.87
2023-05-19T05:31:43.813Z,9.92
2023-05-19T05:34:17.163Z,10.04
2023-05-19T05:36:50.426Z,10.18
2023-05-19T05:39:24.664Z,10.18
2023-05-19T05:41:57.160Z,10.24
2023-05-19T05:44:29.915Z,10.25
2023-05-19T05:47:04.041Z,10.40
2023-05-19T05:49:37.534Z,10.48
2023-05-19T05:52:12.046Z,10.59
2023-05-19T05:54:51.353Z,10.59
2023-05-19T05:57:26.330Z,10.57
2023-05-19T05:59:59.491Z,10.67
2023-05-19T06:02:33.336Z,10.61
2023-05-19T06:05:06.163Z,10.66
2023-05-19T06:07:39.002Z,10.83
2023-05-19T06:10:12.188Z,10.87
2023-05-19T06:12:44.763Z,10.94
2023-05-19T06:15:17.791Z,11.19
2023-05-19T06:18:03.469Z,11.24
2023-05-19T06:20:35.991Z,11.39
2023-05-19T06:23:08.787Z,11.60
2023-05-19T06:25:42.322Z,11.63
2023-05-19T06:28:15.289Z,11.81
2023-05-19T06:30:47.787Z,11.95
2023-05-19T06:33:29.100Z,12.12
2023-05-19T06:36:02.054Z,12.28
2023-05-19T06:38:35.015Z,12.48
2023-05-19T06:41:08.334Z,12.63
2023-05-19T06:43:42.226Z,12.74
2023-05-19T06:46:19.304Z,12.88
2023-05-19T06:48:51.721Z,13.15
2023-05-19T06:51:28.754Z,13.32
2023-05-19T06:54:02.737Z,13.35
2023-05-19T06:56:35.842Z,13.60
2023-05-19T06:59:08.230Z,13.73
2023-05-19T07:01:42.730Z,13.90
2023-05-19T07:04:15.724Z,14.02
2023-05-19T07:06:49.545Z,14.18
2023-05-19T07:09:22.061Z,14.35
2023-05-19T07:11:55.990Z,14.35
2023-05-19T07:14:28.451Z,14.35
2023-05-19T07:17:01.021Z,14.52
2023-05-19T07:19:33.468Z,14.57
2023-05-19T07:22:06.342Z,14.89
2023-05-19T07:24:38.804Z,14.86
2023-05-19T07:27:11.904Z,14.81
2023-05-19T07:29:44.314Z,14.82
2023-05-19T07:32:16.679Z,14.78
2023-05-19T07:34:49.067Z,14.79
2023-05-19T07:37:21.555Z,15.00
2023-05-19T07:39:54.038Z,15.07
2023-05-19T07:42:27.079Z,15.14
2023-05-19T07:44:59.375Z,15.12
2023-05-19T07:47:31.768Z,15.15
2023-05-19T07:50:04.715Z,15.27
2023-05-19T07:52:37.153Z,15.41
2023-05-19T07:55:09.641Z,15.39
2023-05-19T07:57:42.709Z,15.55
2023-05-19T08:00:17.093Z,15.61
2023-05-19T08:02:49.447Z,15.71
2023-05-19T08:05:21.982Z,15.89
2023-05-19T08:07:54.363Z,15.95
2023-05-19T08:10:26.709Z,16.09
2023-05-19T08:12:59.747Z,16.04
2023-05-19T08:15:32.526Z,15.82
2023-05-19T08:18:04.972Z,15.92
2023-05-19T08:20:37.376Z,16.09
2023-05-19T08:23:09.958Z,16.24
2023-05-19T08:25:42.261Z,16.28
2023-05-19T08:28:15.267Z,16.25
2023-05-19T08:30:47.582Z,16.66
2023-05-19T08:33:20.928Z,16.73
2023-05-19T08:35:54.680Z,16.91
2023-05-19T08:38:27.165Z,17.00
2023-05-19T08:40:59.591Z,17.00
2023-05-19T08:43:32.681Z,17.17
2023-05-19T08:46:06.326Z,16.98
2023-05-19T08:48:42.185Z,17.06
2023-05-19T08:51:20.283Z,17.23
2023-05-19T08:53:57.053Z,17.09
2023-05-19T08:56:31.152Z,17.51
2023-05-19T08:59:04.455Z,17.49
2023-05-19T09:04:16.696Z,17.48
2023-05-19T09:06:49.672Z,17.53
2023-05-19T09:09:22.275Z,17.89
2023-05-19T09:11:54.758Z,18.02
2023-05-19T09:14:28.877Z,17.95
2023-05-19T09:17:01.966Z,17.88
2023-05-19T09:19:34.490Z,17.84
2023-05-19T09:22:07.190Z,17.89
2023-05-19T09:24:40.101Z,18.19
2023-05-19T09:27:15.245Z,18.48
2023-05-19T09:29:49.473Z,18.46
2023-05-19T09:32:25.655Z,18.33
2023-05-19T09:34:58.042Z,18.29
2023-05-19T09:37:31.497Z,18.36
2023-05-19T09:40:04.935Z,18.41
2023-05-19T09:42:38.375Z,18.55
2023-05-19T09:45:11.525Z,18.54
2023-05-19T09:47:43.938Z,18.65
2023-05-19T09:50:16.348Z,18.68
2023-05-19T09:52:49.627Z,18.96
2023-05-19T09:55:26.195Z,19.29
2023-05-19T09:57:59.592Z,19.30
2023-05-19T10:00:33.830Z,19.39
2023-05-19T10:03:07.201Z,19.80
2023-05-19T10:05:40.965Z,19.98
2023-05-19T10:08:17.101Z,20.04
2023-05-19T10:10:49.557Z,20.08
2023-05-19T10:13:23.747Z,19.86
2023-05-19T10:15:59.244Z,19.83
2023-05-19T10:18:33.517Z,20.08
2023-05-19T10:21:07.442Z,19.80
2023-05-19T10:23:39.811Z,19.70
2023-05-19T10:26:13.200Z,19.73
2023-05-19T10:28:45.854Z,19.81
2023-05-19T10:31:22.715Z,19.81
2023-05-19T10:34:13.651Z,20.02
2023-05-19T10:36:49.484Z,20.38
2023-05-19T10:39:28.227Z,20.48
2023-05-19T10:42:11.393Z,20.50
2023-05-19T10:44:58.189Z,20.74
2023-05-19T10:47:32.979Z,20.73
2023-05-19T10:50:07.134Z,20.57
2023-05-19T10:52:40.250Z,20.57
2023-05-19T10:55:15.056Z,20.80
2023-05-19T10:57:53.664Z,20.92
2023-05-19T11:00:31.049Z,20.74
2023-05-19T11:03:14.762Z,21.18
2023-05-19T11:05:50.217Z,21.73
2023-05-19T11:08:35.773Z,21.79
2023-05-19T11:11:14.921Z,21.33
2023-05-19T11:13:48.034Z,21.82
2023-05-19T11:16:26.986Z,22.18
2023-05-19T11:19:00.394Z,21.68
2023-05-19T11:21:42.889Z,21.59
2023-05-19T11:24:33.022Z,21.85
2023-05-19T11:27:24.140Z,22.09
2023-05-19T11:29:58.570Z,22.37
2023-05-19T11:32:33.203Z,22.23
2023-05-19T11:35:07.500Z,22.30
2023-05-19T11:37:40.889Z,21.92
2023-05-19T11:40:15.399Z,21.73
2023-05-19T11:42:47.743Z,21.59
2023-05-19T11:45:25.393Z,21.39
2023-05-19T11:48:02.648Z,21.04
2023-05-19T11:50:37.690Z,20.89
2023-05-19T11:53:12.685Z,20.85
2023-05-19T11:55:46.551Z,20.79
2023-05-19T11:58:26.351Z,20.74
2023-05-19T12:01:03.671Z,20.72
2023-05-19T12:03:36.123Z,20.55
2023-05-19T12:06:10.294Z,20.65
2023-05-19T12:08:42.734Z,20.71
2023-05-19T12:11:15.101Z,20.64
2023-05-19T12:13:47.859Z,20.43
2023-05-19T12:16:20.414Z,19.05
2023-05-19T12:18:55.126Z,19.09
2023-05-19T12:21:33.647Z,18.64
2023-05-19T12:24:06.756Z,17.85
2023-05-19T12:26:40.897Z,18.05
2023-05-19T12:29:13.352Z,17.87
2023-05-19T12:31:46.761Z,17.82
2023-05-19T12:34:19.256Z,17.70
2023-05-19T12:36:52.268Z,17.54
2023-05-19T12:39:24.721Z,17.36
2023-05-19T12:42:01.795Z,17.13
2023-05-19T12:44:37.829Z,17.07
2023-05-19T12:47:10.129Z,16.96
2023-05-19T12:49:54.348Z,16.85
2023-05-19T12:52:29.352Z,16.84
2023-05-19T12:55:05.443Z,16.76
2023-05-19T12:57:39.130Z,16.61
2023-05-19T13:00:16.723Z,16.64
2023-05-19T13:03:00.338Z,16.61
2023-05-19T13:05:35.154Z,16.56
2023-05-19T13:08:09.280Z,16.55
2023-05-19T13:10:43.888Z,16.51
2023-05-19T13:13:28.279Z,16.54
2023-05-19T13:16:01.190Z,16.45
2023-05-19T13:18:35.556Z,16.45
2023-05-19T13:21:07.925Z,16.48
2023-05-19T13:23:40.901Z,16.34
2023-05-19T13:26:13.452Z,16.19
2023-05-19T13:28:45.806Z,16.26
2023-05-19T13:31:18.991Z,16.21
2023-05-19T13:33:51.520Z,16.12
2023-05-19T13:36:24.889Z,16.22
2023-05-19T13:38:57.915Z,16.27
2023-05-19T13:41:30.280Z,16.40
2023-05-19T13:44:02.619Z,16.45
2023-05-19T13:46:44.663Z,16.56
2023-05-19T13:49:18.220Z,16.67
2023-05-19T13:51:50.540Z,16.71
2023-05-19T13:54:23.967Z,16.73
2023-05-19T13:56:56.722Z,16.66
2023-05-19T13:59:29.326Z,16.63
2023-05-19T14:02:02.214Z,16.68
2023-05-19T14:04:36.749Z,16.74
2023-05-19T14:07:11.396Z,16.74
2023-05-19T14:09:45.480Z,16.74
2023-05-19T14:12:17.917Z,16.90
2023-05-19T14:14:50.309Z,16.91
2023-05-19T14:17:22.740Z,16.79
2023-05-19T14:19:55.170Z,16.80
2023-05-19T14:22:27.536Z,16.85
2023-05-19T14:25:01.968Z,17.04
2023-05-19T14:27:34.443Z,17.16
2023-05-19T14:30:08.046Z,17.36
2023-05-19T14:32:40.455Z,17.40
2023-05-19T14:35:12.817Z,17.63
2023-05-19T14:37:45.133Z,17.63
2023-05-19T14:40:18.488Z,17.89
2023-05-19T14:42:50.800Z,17.76
2023-05-19T14:45:23.147Z,17.79
2023-05-19T14:47:55.566Z,17.73
2023-05-19T14:50:29.225Z,17.75
2023-05-19T14:53:01.909Z,18.00
2023-05-19T14:55:35.114Z,17.95
2023-05-19T14:58:15.967Z,17.91
2023-05-19T15:00:52.268Z,17.62
2023-05-19T15:03:24.968Z,17.48
2023-05-19T15:05:57.417Z,17.37
2023-05-19T15:08:29.752Z,17.43
2023-05-19T15:11:02.885Z,17.32
2023-05-19T15:13:35.228Z,17.28
2023-05-19T15:16:17.340Z,17.28
2023-05-19T15:18:51.147Z,17.45
2023-05-19T15:21:23.636Z,17.49
2023-05-19T15:23:56.005Z,17.47
2023-05-19T15:26:29.819Z,17.58
2023-05-19T15:29:02.293Z,17.69
2023-05-19T15:31:36.701Z,17.75
2023-05-19T15:34:10.614Z,17.77
2023-05-19T15:36:43.033Z,17.91
2023-05-19T15:39:15.498Z,18.01
2023-05-19T15:41:49.850Z,18.06
2023-05-19T15:44:22.258Z,18.14
2023-05-19T15:46:54.751Z,18.23
2023-05-19T15:49:27.084Z,18.18
2023-05-19T15:51:59.431Z,18.08
2023-05-19T15:54:31.808Z,18.20
2023-05-19T15:57:05.270Z,18.28
2023-05-19T15:59:37.626Z,18.47
2023-05-19T16:02:10.925Z,18.50
2023-05-19T16:04:43.386Z,18.41
2023-05-19T16:07:17.730Z,18.44
2023-05-19T16:09:50.299Z,18.36
2023-05-19T16:12:23.950Z,18.38
2023-05-19T16:14:56.277Z,18.29
2023-05-19T16:17:28.790Z,18.04
2023-05-19T16:20:01.858Z,17.90
2023-05-19T16:22:34.321Z,18.07
2023-05-19T16:25:08.153Z,18.08
2023-05-19T16:27:41.125Z,18.07
2023-05-19T16:30:13.983Z,18.03
2023-05-19T16:32:46.447Z,17.90
2023-05-19T16:35:18.986Z,18.00
2023-05-19T16:37:51.305Z,17.69
2023-05-19T16:40:23.660Z,17.64
2023-05-19T16:42:56.665Z,17.58
2023-05-19T16:45:31.807Z,17.46
2023-05-19T16:48:04.522Z,17.52
2023-05-19T16:50:37.281Z,17.62
2023-05-19T16:53:09.821Z,17.62
2023-05-19T16:55:42.195Z,17.67
2023-05-19T16:58:15.331Z,17.73
2023-05-19T17:00:51.198Z,17.70
2023-05-19T17:03:24.003Z,17.68
2023-05-19T17:05:56.595Z,17.69
2023-05-19T17:08:28.946Z,17.69
2023-05-19T17:11:01.433Z,17.60
2023-05-19T17:13:43.153Z,17.60
2023-05-19T17:16:15.744Z,17.56
2023-05-19T17:18:48.177Z,17.50
2023-05-19T17:21:20.874Z,17.47
2023-05-19T17:23:53.159Z,17.42
2023-05-19T17:26:25.787Z,17.33
2023-05-19T17:28:58.790Z,17.22
2023-05-19T17:31:33.671Z,17.15
2023-05-19T17:34:06.005Z,17.07
2023-05-19T17:36:38.449Z,16.94
2023-05-19T17:39:10.772Z,16.89
2023-05-19T17:41:43.240Z,16.66
2023-05-19T17:44:16.263Z,16.50
2023-05-19T17:46:48.661Z,16.43
2023-05-19T17:49:22.312Z,16.40
2023-05-19T17:51:55.295Z,16.37
2023-05-19T17:54:28.283Z,16.35
2023-05-19T17:57:03.600Z,16.19
2023-05-19T17:59:37.323Z,16.03
2023-05-19T18:02:11.265Z,15.97
2023-05-19T18:04:44.070Z,15.93
2023-05-19T18:07:18.750Z,15.90
2023-05-19T18:09:51.562Z,15.83
2023-05-19T18:12:23.907Z,15.70
2023-05-19T18:14:57.199Z,15.63
2023-05-19T18:17:29.562Z,15.61
2023-05-19T18:20:02.272Z,15.49
2023-05-19T18:22:35.182Z,15.38
2023-05-19T18:25:08.500Z,15.35
2023-05-19T18:27:41.891Z,15.25
2023-05-19T18:30:14.939Z,15.23
2023-05-19T18:32:47.332Z,15.17
2023-05-19T18:35:20.367Z,15.05
2023-05-19T18:37:55.165Z,15.04
2023-05-19T18:40:27.555Z,15.08
2023-05-19T18:42:59.902Z,15.08
2023-05-19T18:45:33.583Z,15.09
2023-05-19T18:48:07.378Z,15.10
2023-05-19T18:50:40.330Z,15.01
2023-05-19T18:53:12.654Z,14.95
2023-05-19T18:55:44.960Z,14.83
2023-05-19T18:58:18.080Z,14.72
2023-05-19T19:00:54.393Z,14.77
2023-05-19T19:03:27.842Z,14.75
2023-05-19T19:06:00.552Z,14.64
2023-05-19T19:08:35.610Z,14.61
2023-05-19T19:11:10.480Z,14.54
2023-05-19T19:13:43.279Z,14.52
2023-05-19T19:16:16.413Z,14.38
2023-05-19T19:18:48.931Z,14.31
2023-05-19T19:21:23.335Z,14.15
2023-05-19T19:23:57.009Z,14.03
2023-05-19T19:26:29.309Z,13.91
2023-05-19T19:29:01.901Z,13.82
2023-05-19T19:31:34.982Z,13.69
2023-05-19T19:34:08.710Z,13.56
2023-05-19T19:36:41.035Z,13.64
2023-05-19T19:39:13.556Z,13.54
2023-05-19T19:41:45.933Z,13.58
2023-05-19T19:44:18.263Z,13.57
2023-05-19T19:46:51.371Z,13.56
2023-05-19T19:49:23.773Z,13.50
2023-05-19T19:51:56.099Z,13.53
2023-05-19T19:54:28.516Z,13.45
2023-05-19T19:57:00.978Z,13.37
2023-05-19T19:59:33.361Z,13.32
2023-05-19T20:02:06.802Z,13.33
2023-05-19T20:04:39.461Z,13.37
2023-05-19T20:07:12.138Z,13.10
2023-05-19T20:09:44.744Z,12.94
2023-05-19T20:12:17.140Z,12.93
2023-05-19T20:14:50.741Z,12.87
2023-05-19T20:17:23.839Z,12.86
2023-05-19T20:19:56.252Z,12.94
2023-05-19T20:22:28.628Z,12.89
2023-05-19T20:25:01.671Z,12.91
2023-05-19T20:27:34.180Z,12.84
2023-05-19T20:30:07.782Z,12.71
2023-05-19T20:32:40.873Z,12.69
2023-05-19T20:35:13.435Z,12.68
2023-05-19T20:37:47.253Z,12.70
2023-05-19T20:40:19.797Z,12.57
2023-05-19T20:42:52.146Z,12.53
2023-05-19T20:45:25.038Z,12.53
2023-05-19T20:47:58.739Z,12.53
2023-05-19T20:50:31.229Z,12.48
2023-05-19T20:53:03.730Z,12.49
2023-05-19T20:55:37.196Z,12.42
2023-05-19T20:58:09.579Z,12.29
2023-05-19T21:00:41.964Z,12.13
2023-05-19T21:03:14.995Z,12.03
2023-05-19T21:05:47.325Z,11.99
2023-05-19T21:08:19.840Z,12.04
2023-05-19T21:10:52.257Z,11.90
2023-05-19T21:13:24.723Z,11.90
2023-05-19T21:15:57.072Z,11.96
2023-05-19T21:18:30.235Z,11.82
2023-05-19T21:21:03.545Z,11.89
2023-05-19T21:23:35.855Z,11.95
2023-05-19T21:26:08.199Z,12.10
2023-05-19T21:28:40.527Z,12.22
2023-05-19T21:31:13.003Z,12.15
2023-05-19T21:33:46.027Z,12.25
2023-05-19T21:36:18.361Z,12.33
2023-05-19T21:38:50.747Z,12.38
2023-05-19T21:41:23.122Z,12.43
2023-05-19T21:43:55.460Z,12.49
2023-05-19T21:46:30.749Z,12.30
2023-05-19T21:49:03.847Z,12.26
2023-05-19T21:51:36.147Z,12.16
2023-05-19T21:54:08.504Z,12.01
2023-05-19T21:56:40.960Z,12.04
2023-05-19T21:59:13.397Z,12.09
2023-05-19T22:01:46.048Z,12.14
2023-05-19T22:04:19.791Z,12.20
2023-05-19T22:06:52.193Z,12.27
2023-05-19T22:09:24.580Z,12.34
2023-05-19T22:11:56.936Z,12.37
2023-05-19T22:14:29.282Z,12.30
2023-05-19T22:17:02.047Z,12.28
2023-05-19T22:19:35.076Z,12.16
2023-05-19T22:22:13.896Z,12.04
2023-05-19T22:24:46.842Z,12.03
2023-05-19T22:27:19.181Z,11.91
2023-05-19T22:29:51.695Z,11.90
2023-05-19T22:32:24.194Z,11.91
2023-05-19T22:34:57.427Z,11.93
2023-05-19T22:37:29.836Z,11.95
2023-05-19T22:40:02.391Z,12.03
2023-05-19T22:42:34.786Z,12.09
2023-05-19T22:45:08.285Z,12.07
2023-05-19T22:47:40.726Z,12.09
2023-05-19T22:50:14.074Z,11.95
2023-05-19T22:52:46.447Z,11.97
2023-05-19T22:55:18.951Z,11.97
2023-05-19T22:57:51.352Z,12.02
2023-05-19T23:00:23.876Z,12.06
2023-05-19T23:02:57.614Z,12.07
2023-05-19T23:05:30.739Z,12.02
2023-05-19T23:08:03.191Z,11.94
2023-05-19T23:10:35.607Z,11.85
2023-05-19T23:13:08.883Z,11.73
2023-05-19T23:15:41.338Z,11.71
2023-05-19T23:18:14.415Z,11.70
2023-05-19T23:20:47.473Z,11.70
2023-05-19T23:23:19.884Z,11.76
2023-05-19T23:25:52.307Z,11.86
2023-05-19T23:28:24.664Z,11.89
2023-05-19T23:30:57.117Z,11.88
2023-05-19T23:33:29.505Z,11.84
2023-05-19T23:36:06.760Z,11.77
2023-05-19T23:38:39.281Z,11.75
2023-05-19T23:41:11.883Z,11.76
2023-05-19T23:43:47.388Z,11.69
2023-05-19T23:46:19.886Z,11.70
2023-05-19T23:48:52.325Z,11.69
2023-05-19T23:51:25.529Z,11.64
2023-05-19T23:53:58.184Z,11.58
2023-05-19T23:56:30.564Z,11.53
2023-05-19T23:59:02.941Z,11.45
